Time;durP1;ratioP1;P1;durP2;ratioP2;P2;SDS_P1;SDS_P2;PMS_P1;PMS_P2;Temp;Humidity;BMP_temperature;BMP_pressure;BME280_temperature;BME280_humidity;BME280_pressure;Samples;Min_cycle;Max_cycle;Signal;HPM_P1;HPM_P2
2021/12/26 00:00:59;;;;;;;;;6.00;6.00;;;;;20.76;37.47;100132.09;5053930;28;45437;-68
2021/12/26 00:03:26;;;;;;;;;5.00;5.00;;;;;20.73;37.57;100120.06;5053657;28;45306;-69
2021/12/26 00:05:53;;;;;;;;;6.50;6.00;;;;;20.76;37.39;100133.91;5055526;28;47486;-69
2021/12/26 00:08:19;;;;;;;;;4.00;3.00;;;;;20.71;37.54;100124.69;5053202;28;45589;-69
2021/12/26 00:10:48;;;;;;;;;7.50;6.00;;;;;20.77;37.58;100133.69;5053496;28;45462;-69
2021/12/26 00:13:15;;;;;;;;;5.75;5.25;;;;;20.77;37.50;100127.59;5053620;28;45354;-67
2021/12/26 00:15:40;;;;;;;;;6.00;5.50;;;;;20.76;37.65;100134.72;5051815;28;46937;-67
2021/12/26 00:18:07;;;;;;;;;4.25;4.25;;;;;20.72;37.34;100123.69;5054711;28;45350;-68
2021/12/26 00:20:32;;;;;;;;;6.00;6.00;;;;;20.72;37.57;100117.59;5054507;28;45403;-68
2021/12/26 00:22:58;;;;;;;;;5.00;5.00;;;;;20.77;37.58;100125.78;5052694;28;45499;-68
2021/12/26 00:25:23;;;;;;;;;5.50;4.75;;;;;20.70;37.46;100109.03;5053136;28;45519;-68
2021/12/26 00:27:49;;;;;;;;;4.75;4.75;;;;;20.73;37.66;100116.59;5051820;28;45457;-69
2021/12/26 00:30:17;;;;;;;;;5.50;5.50;;;;;20.78;37.31;100116.00;5053707;28;45303;-68
2021/12/26 00:32:43;;;;;;;;;6.75;6.00;;;;;20.79;37.67;100120.31;5055571;28;45247;-68
2021/12/26 00:35:11;;;;;;;;;4.50;4.50;;;;;20.73;37.08;100106.00;5052739;28;46328;-68
2021/12/26 00:37:36;;;;;;;;;7.25;6.25;;;;;20.79;37.65;100123.75;5052776;28;45381;-68
2021/12/26 00:40:04;;;;;;;;;6.25;6.25;;;;;20.79;37.51;100126.38;5053378;28;45325;-68
2021/12/26 00:42:29;;;;;;;;;6.00;5.50;;;;;20.72;37.69;100109.66;5036297;28;45491;-68
2021/12/26 00:44:54;;;;;;;;;6.50;6.50;;;;;20.76;37.64;100108.28;5055019;28;46361;-68
2021/12/26 00:47:20;;;;;;;;;6.75;6.75;;;;;20.72;37.32;100113.13;5052738;28;45352;-69
2021/12/26 00:49:45;;;;;;;;;5.50;3.75;;;;;20.76;37.51;100116.22;5052981;28;45670;-69
2021/12/26 00:52:10;;;;;;;;;6.25;5.25;;;;;20.74;37.38;100113.75;5054845;28;45413;-69
2021/12/26 00:54:36;;;;;;;;;8.00;6.25;;;;;20.76;37.61;100113.56;5054964;28;45444;-68
2021/12/26 00:57:03;;;;;;;;;6.50;5.50;;;;;20.76;37.67;100115.41;5058402;28;45246;-68
2021/12/26 00:59:31;;;;;;;;;6.25;4.50;;;;;20.76;37.61;100108.28;5056216;28;45430;-69
2021/12/26 01:01:57;;;;;;;;;6.25;5.00;;;;;20.77;37.37;100119.66;5035104;28;45397;-68
2021/12/26 01:04:23;;;;;;;;;5.25;4.50;;;;;20.76;37.61;100110.94;5045970;28;45997;-69
2021/12/26 01:06:49;;;;;;;;;7.25;5.25;;;;;20.71;37.67;100106.19;5054945;28;45534;-69
2021/12/26 01:09:21;;;;;;;;;4.50;3.50;;;;;20.68;37.36;100100.47;5056532;28;45378;-69
2021/12/26 01:11:52;;;;;;;;;4.75;4.50;;;;;20.78;37.52;100118.66;5058500;28;45377;-68
2021/12/26 01:14:24;;;;;;;;;9.75;7.00;;;;;20.77;37.71;100115.19;5056208;28;46251;-68
2021/12/26 01:17:00;;;;;;;;;4.25;3.25;;;;;20.75;37.36;100114.56;5056080;28;45525;-68
2021/12/26 01:19:32;;;;;;;;;6.75;5.25;;;;;20.70;37.52;100094.00;5055843;28;45580;-68
2021/12/26 01:21:58;;;;;;;;;6.00;5.25;;;;;20.77;37.71;100109.09;5056194;28;45496;-68
2021/12/26 01:24:23;;;;;;;;;1.50;1.50;;;;;20.75;37.57;100101.34;5055908;28;46339;-68
2021/12/26 01:26:49;;;;;;;;;7.00;7.00;;;;;20.76;37.71;100105.63;5058231;28;45331;-67
2021/12/26 01:29:15;;;;;;;;;5.75;5.75;;;;;20.76;37.90;100099.53;5055939;28;45493;-69
2021/12/26 01:31:40;;;;;;;;;8.50;7.25;;;;;20.66;37.68;100091.94;5056067;28;45347;-67
2021/12/26 01:34:07;;;;;;;;;6.25;6.00;;;;;20.76;37.72;100104.81;5053861;28;45430;-68
2021/12/26 01:36:33;;;;;;;;;5.75;5.25;;;;;20.72;37.63;100091.16;5056012;28;45338;-68
2021/12/26 01:39:01;;;;;;;;;6.00;5.50;;;;;20.69;37.49;100091.53;5058064;28;45535;-68
2021/12/26 01:41:28;;;;;;;;;4.75;4.75;;;;;20.77;37.99;100099.31;5053756;28;45952;-69
2021/12/26 01:43:57;;;;;;;;;7.50;6.00;;;;;20.77;37.47;100103.78;5055728;28;46254;-68
2021/12/26 01:46:28;;;;;;;;;6.00;5.25;;;;;20.73;37.73;100092.78;5054068;28;45433;-68
2021/12/26 01:49:19;;;;;;;;;3.00;3.00;;;;;20.74;37.58;100095.25;5055578;28;45349;-68
2021/12/26 01:51:48;;;;;;;;;6.25;4.75;;;;;20.75;37.72;100104.00;5042131;28;45434;-68
2021/12/26 01:54:27;;;;;;;;;5.25;5.25;;;;;20.70;37.75;100096.63;5055826;28;46417;-68
2021/12/26 01:56:53;;;;;;;;;8.75;5.50;;;;;20.75;37.54;100101.34;5057853;28;45311;-68
2021/12/26 01:59:18;;;;;;;;;7.50;6.00;;;;;20.74;37.63;100105.81;5055504;28;45286;-69
2021/12/26 02:01:44;;;;;;;;;5.75;5.00;;;;;20.72;37.60;100102.53;5055465;28;45302;-68
2021/12/26 02:04:09;;;;;;;;;7.00;5.00;;;;;20.70;37.60;100099.28;5054940;28;45599;-68
2021/12/26 02:06:35;;;;;;;;;7.50;7.50;;;;;20.69;37.59;100091.53;5055604;28;45414;-68
2021/12/26 02:09:00;;;;;;;;;7.00;6.00;;;;;20.71;37.76;100094.81;5057720;28;45353;-68
2021/12/26 02:11:26;;;;;;;;;7.25;5.25;;;;;20.68;37.71;100085.44;5055822;28;45806;-68
2021/12/26 02:13:51;;;;;;;;;7.25;5.00;;;;;20.74;37.68;100097.06;5053678;28;45707;-68
2021/12/26 02:16:17;;;;;;;;;7.75;6.25;;;;;20.71;37.61;100087.69;5055316;28;45413;-68
2021/12/26 02:18:42;;;;;;;;;7.75;6.00;;;;;20.78;37.56;100097.50;5055316;28;45494;-68
2021/12/26 02:21:21;;;;;;;;;8.50;6.25;;;;;20.76;37.51;100097.72;5056547;28;45506;-68
2021/12/26 02:24:34;;;;;;;;;8.25;6.00;;;;;20.73;37.73;100085.69;5055889;28;46310;-68
2021/12/26 02:29:19;;;;;;;;;5.00;5.00;;;;;20.79;37.65;100099.16;5055014;28;45561;-68
2021/12/26 02:31:44;;;;;;;;;5.25;5.25;;;;;20.77;37.45;100095.88;5054863;28;45303;-68
2021/12/26 02:34:10;;;;;;;;;7.00;7.00;;;;;20.77;37.90;100101.16;5036868;28;48256;-67
2021/12/26 02:36:35;;;;;;;;;7.25;7.00;;;;;20.77;37.65;100096.69;5055127;28;45902;-68
2021/12/26 02:39:01;;;;;;;;;5.00;5.00;;;;;20.76;37.42;100094.25;5057071;28;45524;-68
2021/12/26 02:41:26;;;;;;;;;7.00;5.75;;;;;20.79;37.44;100099.16;5055700;28;45530;-68
2021/12/26 02:43:52;;;;;;;;;5.75;5.25;;;;;20.77;37.69;100096.69;5053220;28;45982;-68
2021/12/26 02:46:17;;;;;;;;;6.75;6.75;;;;;20.76;37.47;100092.44;5054414;28;46014;-68
2021/12/26 02:48:43;;;;;;;;;5.00;5.00;;;;;20.79;37.65;100094.66;5054915;28;45429;-68
2021/12/26 02:51:09;;;;;;;;;8.00;7.00;;;;;20.78;37.38;100092.22;5055580;28;45374;-68
2021/12/26 02:53:35;;;;;;;;;8.00;7.00;;;;;20.80;37.56;100090.19;5035399;28;47017;-68
2021/12/26 02:56:03;;;;;;;;;7.00;6.00;;;;;20.80;37.68;100091.03;5051175;28;45272;-68
2021/12/26 02:58:28;;;;;;;;;8.75;7.00;;;;;20.79;37.80;100097.31;5054782;28;45362;-68
2021/12/26 03:00:58;;;;;;;;;7.25;6.75;;;;;20.78;37.72;100089.59;5054290;28;45591;-67
2021/12/26 03:03:23;;;;;;;;;7.50;7.00;;;;;20.74;37.58;100087.31;5054301;28;45639;-68
2021/12/26 03:05:56;;;;;;;;;7.25;7.25;;;;;20.76;37.82;100078.38;5055612;28;45343;-68
2021/12/26 03:08:22;;;;;;;;;6.75;5.75;;;;;20.79;37.63;100097.31;5054649;28;45488;-68
2021/12/26 03:10:48;;;;;;;;;7.00;6.50;;;;;20.77;37.79;100085.28;5054667;28;45496;-68
2021/12/26 03:13:15;;;;;;;;;7.25;6.50;;;;;20.60;37.65;100059.13;5054020;28;46274;-68
2021/12/26 03:15:41;;;;;;;;;7.00;6.00;;;;;20.76;37.54;100084.50;5053540;28;45357;-68
2021/12/26 03:18:08;;;;;;;;;8.25;8.25;;;;;20.76;37.71;100087.13;5055796;28;45762;-68
2021/12/26 03:20:42;;;;;;;;;6.75;6.75;;;;;20.75;37.73;100085.50;5056448;28;45287;-68
2021/12/26 03:23:09;;;;;;;;;4.75;4.75;;;;;20.77;38.08;100080.81;5034128;28;48357;-68
2021/12/26 03:25:35;;;;;;;;;5.75;5.75;;;;;20.78;37.84;100086.94;5047347;28;45518;-67
2021/12/26 03:28:04;;;;;;;;;6.00;5.75;;;;;20.78;37.71;100082.47;5054390;28;45358;-68
2021/12/26 03:30:31;;;;;;;;;6.25;5.25;;;;;20.75;37.73;100080.19;5037020;28;45396;-68
2021/12/26 03:32:59;;;;;;;;;5.50;5.00;;;;;20.79;37.49;100086.72;5056490;28;46635;-68
2021/12/26 03:35:27;;;;;;;;;5.75;5.75;;;;;20.77;37.65;100086.13;5053901;28;45380;-68
2021/12/26 03:37:54;;;;;;;;;8.00;6.00;;;;;20.72;37.68;100078.75;5054160;28;45425;-68
2021/12/26 03:40:20;;;;;;;;;6.50;6.50;;;;;20.73;37.50;100077.75;5054039;28;45548;-68
2021/12/26 03:42:45;;;;;;;;;6.50;6.50;;;;;20.73;37.67;100083.06;5052412;28;47274;-68
2021/12/26 03:45:11;;;;;;;;;5.25;3.00;;;;;20.77;37.99;100088.75;5054109;28;45247;-67
2021/12/26 03:47:37;;;;;;;;;7.25;5.00;;;;;20.73;37.78;100088.34;5055669;28;45378;-68
2021/12/26 03:50:06;;;;;;;;;5.75;5.75;;;;;20.77;37.80;100088.75;5053959;28;45520;-68
2021/12/26 03:52:31;;;;;;;;;5.25;4.75;;;;;20.71;37.91;100077.09;5053673;28;46201;-68
2021/12/26 03:54:56;;;;;;;;;5.50;5.50;;;;;20.77;37.66;100080.81;5053901;28;45369;-68
2021/12/26 03:57:22;;;;;;;;;8.25;6.75;;;;;20.76;37.85;100087.13;5054146;28;45782;-67
2021/12/26 03:59:47;;;;;;;;;7.50;6.25;;;;;20.73;37.73;100080.41;5055620;28;45441;-68
2021/12/26 04:02:15;;;;;;;;;6.00;6.00;;;;;20.67;37.82;100067.13;5053483;28;45542;-67
2021/12/26 04:04:42;;;;;;;;;5.00;5.00;;;;;20.73;37.81;100075.13;5053386;28;45339;-68
2021/12/26 04:07:08;;;;;;;;;6.00;5.75;;;;;20.75;37.94;100080.19;5053897;28;45373;-68
2021/12/26 04:09:34;;;;;;;;;7.25;7.00;;;;;20.73;37.70;100064.53;5052276;28;45667;-68
2021/12/26 04:11:59;;;;;;;;;7.00;7.00;;;;;20.70;37.84;100064.09;5055779;28;46484;-68
2021/12/26 04:14:25;;;;;;;;;7.50;6.00;;;;;20.73;37.78;100067.19;5053251;28;45442;-68
2021/12/26 04:16:50;;;;;;;;;4.75;4.75;;;;;20.73;37.67;100066.38;5053784;28;45494;-68
2021/12/26 04:19:16;;;;;;;;;8.00;5.75;;;;;20.73;37.78;100063.72;5053581;28;45517;-68
2021/12/26 04:21:42;;;;;;;;;5.75;4.75;;;;;20.71;37.83;100061.25;5052154;28;45438;-68
2021/12/26 04:24:07;;;;;;;;;6.25;6.25;;;;;20.73;37.82;100063.72;5054660;28;45289;-68
2021/12/26 04:26:33;;;;;;;;;8.00;6.50;;;;;20.74;37.90;100063.50;5054467;28;45399;-68
2021/12/26 04:28:58;;;;;;;;;5.50;5.50;;;;;20.73;37.78;100059.25;5052950;28;45456;-68
2021/12/26 04:31:24;;;;;;;;;12.00;8.75;;;;;20.77;37.80;100061.50;5053173;28;45507;-68
2021/12/26 04:33:50;;;;;;;;;5.75;5.25;;;;;20.78;37.79;100060.50;5036059;28;45612;-68
2021/12/26 04:36:16;;;;;;;;;8.50;5.25;;;;;20.78;37.66;100055.22;5053519;28;49621;-68
2021/12/26 04:38:42;;;;;;;;;6.00;6.00;;;;;20.77;37.79;100056.22;5055661;28;45318;-68
2021/12/26 04:41:07;;;;;;;;;6.50;5.50;;;;;20.75;37.59;100048.47;5052980;28;46170;-68
2021/12/26 04:43:35;;;;;;;;;5.75;5.75;;;;;20.76;37.71;100047.47;5052781;28;45649;-68
2021/12/26 04:46:03;;;;;;;;;7.00;6.00;;;;;20.75;37.96;100040.56;5053009;28;45440;-68
2021/12/26 04:48:28;;;;;;;;;7.75;7.75;;;;;20.79;37.69;100043.63;5036359;28;45515;-68
2021/12/26 04:50:54;;;;;;;;;3.00;2.00;;;;;20.76;37.58;100038.72;5054873;28;46242;-68
2021/12/26 04:53:19;;;;;;;;;9.00;6.25;;;;;20.79;37.69;100047.06;5053011;28;45368;-68
2021/12/26 04:55:45;;;;;;;;;8.75;6.25;;;;;20.79;37.70;100043.63;5053117;28;45402;-68
2021/12/26 04:58:10;;;;;;;;;6.00;6.00;;;;;20.78;37.76;100042.00;5052760;28;45395;-68
2021/12/26 05:00:35;;;;;;;;;4.00;4.00;;;;;20.77;37.56;100038.53;5053081;28;46236;-68
2021/12/26 05:03:07;;;;;;;;;6.50;6.50;;;;;20.77;37.79;100041.16;5054838;28;45399;-68
2021/12/26 05:05:32;;;;;;;;;5.25;5.25;;;;;20.80;37.53;100042.63;5054370;28;45470;-68
2021/12/26 05:07:58;;;;;;;;;6.00;6.00;;;;;20.79;37.56;100039.16;5048920;28;45541;-68
2021/12/26 05:10:25;;;;;;;;;7.25;6.00;;;;;20.81;37.72;100046.91;5053052;28;45353;-68
2021/12/26 05:12:51;;;;;;;;;7.00;6.00;;;;;20.79;37.87;100038.34;5052012;28;45443;-68
2021/12/26 05:15:18;;;;;;;;;4.75;4.75;;;;;20.80;37.82;100043.44;5052934;28;45596;-67
2021/12/26 05:17:44;;;;;;;;;7.25;6.00;;;;;20.80;37.77;100040.78;5054968;28;45208;-68
2021/12/26 05:20:11;;;;;;;;;5.75;5.00;;;;;20.54;37.82;100012.31;5052648;28;46239;-67
2021/12/26 05:22:37;;;;;;;;;6.75;6.25;;;;;20.76;37.86;100033.44;5052648;28;45542;-68
2021/12/26 05:25:06;;;;;;;;;4.75;4.75;;;;;20.77;37.71;100037.69;5052869;28;45528;-67
2021/12/26 05:27:32;;;;;;;;;5.75;4.75;;;;;20.78;37.81;100034.06;5035560;28;45361;-68
2021/12/26 05:29:57;;;;;;;;;7.25;5.75;;;;;20.79;37.88;100038.34;5054720;28;47640;-68
2021/12/26 05:32:22;;;;;;;;;6.00;6.00;;;;;20.58;37.81;100008.28;5052538;28;45358;-68
2021/12/26 05:34:48;;;;;;;;;5.50;5.50;;;;;20.78;37.81;100034.88;5052555;28;45380;-68
2021/12/26 05:37:13;;;;;;;;;6.25;5.75;;;;;20.75;37.87;100032.63;5053156;28;45445;-68
2021/12/26 05:39:39;;;;;;;;;6.00;6.00;;;;;20.77;37.70;100035.88;5036705;28;46376;-67
2021/12/26 05:42:04;;;;;;;;;6.25;6.25;;;;;20.73;37.56;100030.19;5056885;28;45460;-68
2021/12/26 05:44:30;;;;;;;;;4.00;4.00;;;;;20.78;37.81;100028.78;5056914;28;45548;-68
2021/12/26 05:46:55;;;;;;;;;5.25;5.25;;;;;20.76;37.79;100036.91;5055874;28;45448;-68
2021/12/26 05:49:20;;;;;;;;;7.00;7.00;;;;;20.75;37.48;100037.91;5055672;28;46264;-67
2021/12/26 05:51:46;;;;;;;;;6.50;6.00;;;;;20.57;37.75;100010.13;5055884;28;45438;-68
2021/12/26 05:54:11;;;;;;;;;4.75;4.75;;;;;20.75;37.54;100040.56;5056465;28;45243;-68
2021/12/26 05:56:37;;;;;;;;;6.00;6.00;;;;;20.75;37.63;100040.56;5057070;28;45342;-67
2021/12/26 05:59:03;;;;;;;;;6.00;6.00;;;;;20.79;37.67;100043.63;5055505;28;46584;-68
2021/12/26 06:01:29;;;;;;;;;5.75;5.50;;;;;20.72;37.65;100033.00;5055678;28;45327;-68
2021/12/26 06:03:54;;;;;;;;;5.50;5.50;;;;;20.74;37.75;100041.53;5055603;28;45315;-68
2021/12/26 06:06:19;;;;;;;;;5.50;4.00;;;;;20.76;37.78;100039.56;5055863;28;45271;-68
2021/12/26 06:08:45;;;;;;;;;5.25;5.00;;;;;20.68;37.89;100027.28;5056023;28;45399;-68
2021/12/26 06:11:10;;;;;;;;;5.25;5.25;;;;;20.76;37.78;100038.72;5055223;28;49737;-68
2021/12/26 06:13:36;;;;;;;;;5.75;5.75;;;;;20.75;37.96;100032.63;5055514;28;45585;-68
2021/12/26 06:16:01;;;;;;;;;4.25;4.25;;;;;20.77;37.87;100035.06;5055450;28;45612;-68
2021/12/26 06:18:27;;;;;;;;;6.00;5.25;;;;;20.77;37.99;100035.06;5054771;28;45611;-67
2021/12/26 06:20:53;;;;;;;;;7.50;6.00;;;;;20.76;37.92;100039.56;5057125;28;45248;-68
2021/12/26 06:23:18;;;;;;;;;5.00;4.50;;;;;20.74;37.86;100034.44;5054710;28;45575;-67
2021/12/26 06:25:44;;;;;;;;;7.25;5.25;;;;;20.74;37.74;100029.16;5055173;28;45406;-68
2021/12/26 06:28:09;;;;;;;;;6.00;6.00;;;;;20.71;37.83;100023.44;5054989;28;45605;-68
2021/12/26 06:30:35;;;;;;;;;6.50;5.50;;;;;20.74;38.10;100029.16;5037359;28;45765;-68
2021/12/26 06:33:00;;;;;;;;;7.50;5.00;;;;;20.74;37.88;100034.44;5036178;28;45348;-67
2021/12/26 06:35:26;;;;;;;;;5.25;4.75;;;;;20.76;38.00;100025.50;5054041;28;45560;-68
2021/12/26 06:37:51;;;;;;;;;5.00;5.00;;;;;20.72;37.82;100027.72;5054463;28;47354;-67
2021/12/26 06:40:17;;;;;;;;;5.00;5.00;;;;;20.71;38.02;100018.94;5055098;28;45568;-68
2021/12/26 06:42:45;;;;;;;;;7.50;6.00;;;;;20.77;38.12;100033.25;5055059;28;45338;-68
2021/12/26 06:45:15;;;;;;;;;5.50;5.50;;;;;20.73;38.01;100024.88;5055758;28;45441;-68
2021/12/26 06:47:42;;;;;;;;;4.75;4.00;;;;;20.61;37.74;100005.25;5054279;28;47158;-68
2021/12/26 06:50:08;;;;;;;;;7.00;6.00;;;;;20.73;37.92;100029.34;5052744;28;45307;-68
2021/12/26 06:52:34;;;;;;;;;4.00;4.00;;;;;20.77;37.78;100040.34;5054560;28;45510;-68
2021/12/26 06:54:59;;;;;;;;;5.25;5.25;;;;;20.78;37.88;100036.72;5054868;28;45334;-68
2021/12/26 06:57:25;;;;;;;;;6.25;6.25;;;;;20.79;37.83;100041.00;5054299;28;46206;-68
2021/12/26 06:59:50;;;;;;;;;6.50;6.25;;;;;20.80;37.75;100037.31;5034512;28;45256;-68
2021/12/26 07:02:15;;;;;;;;;6.00;4.50;;;;;20.80;37.93;100032.03;5053373;28;49650;-67
2021/12/26 07:04:41;;;;;;;;;7.00;7.00;;;;;20.81;37.99;100036.31;5036441;28;45508;-68
2021/12/26 07:07:06;;;;;;;;;4.75;4.75;;;;;20.80;38.10;100037.31;5054216;28;45827;-68
2021/12/26 07:09:31;;;;;;;;;5.00;4.50;;;;;20.78;37.93;100031.41;5054723;28;45323;-68
2021/12/26 07:11:57;;;;;;;;;4.25;4.25;;;;;20.80;37.56;100030.22;5052525;28;45385;-68
2021/12/26 07:14:22;;;;;;;;;4.75;4.50;;;;;20.74;37.89;100021.22;5054671;28;45433;-68
2021/12/26 07:16:48;;;;;;;;;8.50;7.00;;;;;20.79;37.90;100031.22;5054293;28;45638;-68
2021/12/26 07:19:16;;;;;;;;;5.00;4.50;;;;;20.81;37.95;100034.50;5054277;28;45292;-69
2021/12/26 07:21:44;;;;;;;;;5.00;5.00;;;;;20.81;37.74;100037.16;5054201;28;45453;-68
2021/12/26 07:24:09;;;;;;;;;6.50;6.50;;;;;20.83;37.87;100043.06;5055167;28;45429;-69
2021/12/26 07:26:34;;;;;;;;;4.25;4.25;;;;;20.81;37.82;100041.63;5053762;28;45348;-69
2021/12/26 07:29:00;;;;;;;;;4.50;4.50;;;;;20.81;37.95;100038.97;5054083;28;45558;-69
2021/12/26 07:31:25;;;;;;;;;5.00;4.00;;;;;20.81;37.93;100037.16;5054088;28;45303;-68
2021/12/26 07:33:51;;;;;;;;;5.50;4.75;;;;;20.82;37.86;100030.00;5054247;28;45456;-69
2021/12/26 07:36:17;;;;;;;;;5.50;5.50;;;;;20.78;37.83;100031.41;5054425;28;46593;-68
2021/12/26 07:38:42;;;;;;;;;6.00;5.50;;;;;20.78;37.96;100034.88;5054183;28;45366;-69
2021/12/26 07:41:07;;;;;;;;;5.50;4.50;;;;;20.81;37.78;100037.16;5054296;28;45310;-69
2021/12/26 07:43:33;;;;;;;;;5.00;5.00;;;;;20.81;37.83;100033.69;5054047;28;45427;-70
2021/12/26 07:45:58;;;;;;;;;6.25;5.50;;;;;20.78;37.72;100040.19;5053736;28;46367;-68
2021/12/26 07:48:24;;;;;;;;;4.75;4.75;;;;;20.71;37.95;100026.09;5054039;28;45247;-70
2021/12/26 07:50:49;;;;;;;;;11.00;7.00;;;;;20.80;38.15;100042.63;5055737;28;45442;-68
2021/12/26 07:53:14;;;;;;;;;7.00;6.00;;;;;20.80;37.96;100048.72;5053901;28;45372;-69
2021/12/26 07:55:40;;;;;;;;;5.00;4.50;;;;;20.80;37.99;100043.44;5053860;28;45537;-68
2021/12/26 07:58:05;;;;;;;;;4.25;4.25;;;;;20.80;37.65;100045.25;5053698;28;45338;-68
2021/12/26 08:00:31;;;;;;;;;7.75;5.50;;;;;20.79;38.04;100048.94;5053841;28;45337;-68
2021/12/26 08:02:58;;;;;;;;;6.00;4.25;;;;;20.79;38.06;100048.94;5051668;28;45362;-68
2021/12/26 08:05:23;;;;;;;;;4.50;4.50;;;;;20.77;38.01;100043.81;5051826;28;45456;-68
2021/12/26 08:07:49;;;;;;;;;6.25;5.75;;;;;20.80;37.63;100053.19;5053636;28;45299;-68
2021/12/26 08:10:15;;;;;;;;;4.25;4.25;;;;;20.76;38.01;100052.78;5053885;28;45421;-67
2021/12/26 08:12:40;;;;;;;;;4.25;4.25;;;;;20.76;37.98;100044.00;5053865;28;45389;-68
2021/12/26 08:15:06;;;;;;;;;5.75;5.50;;;;;20.75;38.00;100045.84;5055013;28;49248;-68
2021/12/26 08:17:32;;;;;;;;;7.25;7.25;;;;;20.79;37.59;100054.22;5053138;28;45476;-68
2021/12/26 08:19:58;;;;;;;;;5.75;4.00;;;;;20.79;37.90;100056.84;5053093;28;45307;-68
2021/12/26 08:22:24;;;;;;;;;3.50;3.50;;;;;20.79;38.11;100056.84;5053541;28;45540;-68
2021/12/26 08:24:50;;;;;;;;;4.00;4.00;;;;;20.78;38.03;100052.56;5052200;28;46427;-68
2021/12/26 08:27:16;;;;;;;;;4.75;4.75;;;;;20.76;37.85;100059.88;5053373;28;45413;-68
2021/12/26 08:29:41;;;;;;;;;5.50;5.50;;;;;20.78;37.92;100057.84;5055661;28;45381;-68
2021/12/26 08:32:11;;;;;;;;;4.25;3.25;;;;;20.76;38.04;100065.16;5032183;28;45528;-68
2021/12/26 08:34:37;;;;;;;;;7.00;5.50;;;;;20.77;37.99;100067.59;5046196;28;46196;-68
2021/12/26 08:37:04;;;;;;;;;4.50;4.25;;;;;20.79;38.10;100076.16;5053151;28;45429;-68
2021/12/26 08:39:38;;;;;;;;;5.50;4.50;;;;;20.77;38.07;100077.34;5037526;28;45386;-68
2021/12/26 08:42:05;;;;;;;;;3.50;3.50;;;;;20.73;38.21;100072.47;5051541;28;45314;-68
2021/12/26 08:44:31;;;;;;;;;5.00;4.50;;;;;20.77;37.86;100082.63;5052452;28;46101;-68
2021/12/26 08:46:57;;;;;;;;;4.25;4.25;;;;;20.76;37.89;100081.84;5052845;28;45485;-68
2021/12/26 08:49:22;;;;;;;;;4.75;4.75;;;;;20.76;38.29;100081.03;5052730;28;45543;-68
2021/12/26 08:51:49;;;;;;;;;3.00;2.75;;;;;20.79;38.08;100086.72;5051799;28;45519;-68
2021/12/26 08:54:15;;;;;;;;;6.25;4.50;;;;;20.78;38.15;100084.28;5053944;28;45642;-68
2021/12/26 08:56:41;;;;;;;;;4.50;4.50;;;;;20.74;38.24;100076.72;5052912;28;45421;-68
2021/12/26 08:59:07;;;;;;;;;6.25;6.25;;;;;20.79;37.63;100092.03;5053004;28;45437;-68
2021/12/26 09:01:33;;;;;;;;;5.50;4.50;;;;;20.80;37.95;100095.50;5053061;28;45567;-68
2021/12/26 09:03:59;;;;;;;;;6.50;6.25;;;;;20.80;38.06;100091.03;5052305;28;46581;-68
2021/12/26 09:06:24;;;;;;;;;6.00;6.00;;;;;20.61;37.85;100066.88;5053016;28;45396;-68
2021/12/26 09:08:50;;;;;;;;;5.00;5.00;;;;;20.81;37.84;100097.97;5055109;28;45600;-68
2021/12/26 09:11:16;;;;;;;;;5.00;5.00;;;;;20.82;37.94;100102.22;5052854;28;45374;-68
2021/12/26 09:13:43;;;;;;;;;4.00;4.00;;;;;20.81;37.87;100100.59;5047918;28;47881;-68
2021/12/26 09:16:08;;;;;;;;;4.25;4.25;;;;;20.82;38.22;100107.50;5056314;28;45376;-68
2021/12/26 09:18:34;;;;;;;;;6.00;5.00;;;;;20.77;38.04;100091.41;5056073;28;45494;-67
2021/12/26 09:20:59;;;;;;;;;5.00;5.00;;;;;20.81;37.78;100105.06;5058776;28;45295;-68
2021/12/26 09:23:25;;;;;;;;;5.75;5.25;;;;;20.82;38.04;100110.16;5033213;28;46835;-68
2021/12/26 09:25:50;;;;;;;;;3.75;3.75;;;;;20.80;38.02;100109.53;5049639;28;45461;-68
2021/12/26 09:28:16;;;;;;;;;8.50;6.25;;;;;20.85;37.98;100119.53;5038544;28;45292;-68
2021/12/26 09:30:42;;;;;;;;;4.75;4.75;;;;;20.85;37.75;100115.06;5056270;28;45502;-68
2021/12/26 09:33:07;;;;;;;;;5.25;5.25;;;;;20.83;37.94;100105.69;5056768;28;46362;-68
2021/12/26 09:35:33;;;;;;;;;5.25;5.25;;;;;20.82;37.71;100107.50;5055666;28;45371;-68
2021/12/26 09:37:59;;;;;;;;;5.00;4.00;;;;;20.81;37.97;100105.88;5055825;28;45230;-68
2021/12/26 09:40:25;;;;;;;;;5.00;5.00;;;;;20.82;37.77;100104.88;5056215;28;45568;-68
2021/12/26 09:42:50;;;;;;;;;4.00;4.00;;;;;20.83;38.01;100110.97;5055744;28;45361;-68
2021/12/26 09:45:18;;;;;;;;;5.25;5.25;;;;;20.80;37.87;100106.88;5055687;28;45303;-68
2021/12/26 09:47:49;;;;;;;;;3.75;3.75;;;;;20.84;37.96;100113.41;5057820;28;45404;-68
2021/12/26 09:50:18;;;;;;;;;4.25;4.25;;;;;20.84;38.01;100117.91;5055637;28;45502;-68
2021/12/26 09:52:47;;;;;;;;;3.50;3.00;;;;;20.81;37.93;100118.28;5055531;28;47127;-68
2021/12/26 09:55:13;;;;;;;;;5.00;4.00;;;;;20.84;37.72;100126.63;5055425;28;45553;-68
2021/12/26 09:57:39;;;;;;;;;6.25;4.50;;;;;20.80;38.16;100120.09;5055828;28;45582;-68
2021/12/26 10:00:24;;;;;;;;;5.75;5.75;;;;;20.82;38.08;100123.38;5039118;28;45542;-68
2021/12/26 10:03:16;;;;;;;;;4.50;4.50;;;;;20.83;38.07;100118.91;5055960;28;45365;-68
2021/12/26 10:06:02;;;;;;;;;3.25;3.25;;;;;20.81;37.99;100121.75;5055581;28;45342;-68
2021/12/26 10:08:30;;;;;;;;;4.25;4.25;;;;;20.81;38.14;100123.56;5054919;28;45514;-68
2021/12/26 10:11:12;;;;;;;;;4.50;4.50;;;;;20.80;38.08;100120.09;5055355;28;45521;-68
2021/12/26 10:13:45;;;;;;;;;3.00;3.00;;;;;20.80;38.03;100125.41;5053637;28;46450;-68
2021/12/26 10:16:12;;;;;;;;;3.00;3.00;;;;;20.79;38.01;100115.81;5054819;28;45420;-68
2021/12/26 10:18:39;;;;;;;;;6.75;4.00;;;;;20.80;38.18;100117.47;5055625;28;45377;-68
2021/12/26 10:21:23;;;;;;;;;5.25;4.50;;;;;20.81;38.33;100115.66;5056684;28;45490;-68
2021/12/26 10:23:50;;;;;;;;;5.00;5.00;;;;;20.79;38.07;100115.81;5056989;28;46156;-68
2021/12/26 10:26:26;;;;;;;;;4.25;4.25;;;;;20.78;38.27;100116.84;5055006;28;45425;-68
2021/12/26 10:29:16;;;;;;;;;3.50;3.50;;;;;20.80;38.30;100111.34;5055360;28;45465;-68
2021/12/26 10:31:47;;;;;;;;;4.25;4.25;;;;;20.76;37.83;100107.47;5036997;28;49274;-68
2021/12/26 10:34:22;;;;;;;;;6.75;4.75;;;;;20.80;37.98;100111.34;5054852;28;46622;-68
2021/12/26 10:36:49;;;;;;;;;5.00;4.00;;;;;20.77;37.81;100101.16;5052883;28;45374;-68
2021/12/26 10:39:24;;;;;;;;;5.00;5.00;;;;;20.77;38.11;100101.97;5036705;28;45479;-67
2021/12/26 10:41:53;;;;;;;;;5.00;5.00;;;;;20.78;38.09;100103.63;5057167;28;45474;-68
2021/12/26 10:44:26;;;;;;;;;5.25;5.25;;;;;20.78;38.17;100103.63;5054388;28;45381;-68
2021/12/26 10:46:55;;;;;;;;;5.00;4.75;;;;;20.78;38.07;100105.44;5054617;28;45422;-68
2021/12/26 10:49:50;;;;;;;;;6.25;5.00;;;;;20.78;38.04;100102.78;5055044;28;45400;-68
2021/12/26 10:52:40;;;;;;;;;4.25;4.25;;;;;20.76;38.08;100100.34;5053509;28;45488;-68
2021/12/26 10:55:12;;;;;;;;;5.00;5.00;;;;;20.77;38.11;100095.88;5042283;28;46481;-69
2021/12/26 10:57:41;;;;;;;;;4.50;4.00;;;;;20.76;38.21;100094.25;5054929;28;45466;-68
2021/12/26 11:00:12;;;;;;;;;4.25;4.25;;;;;20.78;38.20;100093.03;5055621;28;45351;-68
2021/12/26 11:02:41;;;;;;;;;5.25;5.25;;;;;20.78;38.24;100090.41;5056670;28;45568;-68
2021/12/26 11:05:11;;;;;;;;;6.00;5.00;;;;;20.80;38.19;100087.56;5054316;28;47361;-68
2021/12/26 11:07:44;;;;;;;;;5.00;5.00;;;;;20.77;38.01;100082.63;5054365;28;45581;-68
2021/12/26 11:10:14;;;;;;;;;5.00;5.00;;;;;20.81;38.09;100083.91;5054460;28;45382;-68
2021/12/26 11:12:43;;;;;;;;;4.25;4.00;;;;;20.82;38.13;100078.44;5035902;28;45467;-68
2021/12/26 11:15:10;;;;;;;;;3.00;2.00;;;;;20.82;38.05;100080.25;5054975;28;47603;-68
2021/12/26 11:17:45;;;;;;;;;6.00;5.00;;;;;20.82;38.24;100083.72;5055453;28;45501;-68
2021/12/26 11:20:38;;;;;;;;;3.50;3.50;;;;;20.83;38.21;100076.59;5052869;28;45397;-68
2021/12/26 11:23:10;;;;;;;;;3.50;3.50;;;;;20.82;38.12;100081.06;5053686;28;45525;-68
2021/12/26 11:25:47;;;;;;;;;4.50;4.50;;;;;20.84;38.01;100084.34;5054044;28;46225;-68
2021/12/26 11:28:17;;;;;;;;;4.75;4.75;;;;;20.83;38.23;100079.25;5053805;28;47426;-68